Time;durP1;ratioP1;P1;durP2;ratioP2;P2;SDS_P1;SDS_P2;PMS_P1;PMS_P2;Temp;Humidity;BMP_temperature;BMP_pressure;BME280_temperature;BME280_humidity;BME280_pressure;Samples;Min_cycle;Max_cycle;Signal;HPM_P1;HPM_P2
2022/02/04 00:01:28;;;;;;;;;16.00;11.67;;;;;10.56;84.87;100999.44;4851509;29;44892;-83
2022/02/04 00:04:34;;;;;;;;;17.00;15.00;;;;;10.59;84.75;100978.19;4852558;29;45511;-83
2022/02/04 00:24:45;;;;;;;;;15.67;14.00;;;;;10.64;84.87;100985.34;4854404;29;45497;-83
2022/02/04 00:27:16;;;;;;;;;16.33;13.00;;;;;10.61;84.62;100970.25;4835524;29;44965;-84
2022/02/04 00:30:05;;;;;;;;;15.67;15.67;;;;;10.66;84.84;100972.97;4837017;29;44810;-83
2022/02/04 00:32:33;;;;;;;;;18.67;15.67;;;;;10.59;85.12;100967.56;4852479;29;46507;-83
2022/02/04 00:35:15;;;;;;;;;18.67;15.33;;;;;10.58;85.25;100971.09;4854298;29;45762;-83
2022/02/04 00:37:57;;;;;;;;;15.00;14.00;;;;;10.54;85.20;100973.66;4818697;29;45494;-83
2022/02/04 00:40:26;;;;;;;;;14.33;13.00;;;;;10.47;85.05;100962.03;4834490;29;45912;-83
2022/02/04 00:42:54;;;;;;;;;17.33;12.67;;;;;10.51;85.14;100962.97;4816955;29;47855;-84
2022/02/04 00:45:36;;;;;;;;;15.00;13.33;;;;;10.54;85.22;100958.63;4835678;29;44723;-85
2022/02/04 00:50:59;;;;;;;;;11.33;11.33;;;;;10.53;85.36;100951.50;4835070;29;45351;-84
2022/02/04 00:56:07;;;;;;;;;20.00;14.67;;;;;10.52;85.37;100944.41;4836169;29;45556;-83
2022/02/04 01:26:28;;;;;;;;;15.00;13.00;;;;;10.55;85.21;100948.88;4833190;29;45532;-84
2022/02/04 01:28:54;;;;;;;;;13.33;11.00;;;;;10.53;85.28;100951.50;4832982;29;45460;-84
2022/02/04 01:31:21;;;;;;;;;12.67;10.67;;;;;10.55;85.55;100955.06;4833606;29;45471;-84
2022/02/04 01:33:49;;;;;;;;;14.33;14.00;;;;;10.57;85.26;100965.75;4833641;29;45554;-84
2022/02/04 01:36:16;;;;;;;;;22.33;17.33;;;;;10.54;85.57;100957.69;4825652;29;47176;-83
2022/02/04 01:38:41;;;;;;;;;14.67;14.33;;;;;10.51;85.52;100958.53;4852255;29;45477;-82
2022/02/04 01:41:08;;;;;;;;;15.33;13.67;;;;;10.57;85.50;100956.00;4835101;29;45435;-83
2022/02/04 01:43:34;;;;;;;;;15.33;14.33;;;;;10.59;85.25;100954.25;4852093;29;45779;-83
2022/02/04 01:46:03;;;;;;;;;13.33;13.33;;;;;10.60;85.32;100953.41;4851470;29;45390;-84
2022/02/04 01:48:30;;;;;;;;;14.33;14.00;;;;;10.57;85.48;100950.69;4834905;29;45673;-84
2022/02/04 01:50:55;;;;;;;;;15.00;14.67;;;;;10.53;85.45;100950.59;4833863;29;45365;-83
2022/02/04 01:53:27;;;;;;;;;14.00;13.00;;;;;10.53;85.87;100954.16;4851209;29;45632;-83
2022/02/04 01:55:58;;;;;;;;;18.33;14.67;;;;;10.44;85.49;100948.66;4834776;29;47794;-84
2022/02/04 01:58:25;;;;;;;;;14.33;14.00;;;;;10.47;85.45;100951.38;4834861;29;46008;-84
2022/02/04 02:00:50;;;;;;;;;19.33;18.00;;;;;10.49;85.72;100954.97;4852526;29;45551;-86
2022/02/04 02:03:17;;;;;;;;;15.67;15.67;;;;;10.39;86.61;100950.34;4836301;29;45423;-86
2022/02/04 02:05:43;;;;;;;;;19.33;13.00;;;;;10.32;86.91;100945.78;4835367;29;47255;-86
2022/02/04 02:08:11;;;;;;;;;16.00;15.33;;;;;10.29;87.28;100951.03;4836953;29;45541;-85
2022/02/04 02:10:37;;;;;;;;;14.67;12.67;;;;;10.19;88.04;100949.94;4836302;29;45570;-85
2022/02/04 02:15:40;;;;;;;;;11.67;11.67;;;;;10.19;87.77;100949.94;4855818;29;45583;-87
2022/02/04 02:56:16;;;;;;;;;14.33;12.00;;;;;10.15;88.14;100927.72;4781792;29;45351;-87
2022/02/04 02:58:44;;;;;;;;;16.67;13.00;;;;;10.08;88.08;100915.22;4782548;29;46356;-87
2022/02/04 03:01:10;;;;;;;;;16.00;13.67;;;;;10.17;87.74;100910.03;4782946;29;44856;-86
2022/02/04 03:03:36;;;;;;;;;11.33;11.00;;;;;10.16;88.25;100900.28;4781785;29;45368;-86
2022/02/04 03:06:01;;;;;;;;;8.33;7.67;;;;;10.12;88.53;100905.50;4782768;29;45465;-86
2022/02/04 03:08:28;;;;;;;;;8.00;8.00;;;;;10.08;88.47;100909.88;4782112;29;45412;-86
2022/02/04 03:10:55;;;;;;;;;12.00;8.67;;;;;10.05;89.00;100909.81;4781745;29;45389;-86
2022/02/04 03:13:28;;;;;;;;;9.67;7.67;;;;;10.03;88.89;100892.94;4782307;29;45573;-86
2022/02/04 03:16:05;;;;;;;;;9.00;7.67;;;;;10.04;89.04;100886.78;4780737;29;44896;-86
2022/02/04 03:18:34;;;;;;;;;8.33;8.00;;;;;10.06;88.77;100890.38;4781032;29;47786;-86
2022/02/04 03:21:07;;;;;;;;;9.33;9.33;;;;;10.05;88.46;100888.56;4777875;29;45576;-86
2022/02/04 03:23:36;;;;;;;;;7.00;7.00;;;;;10.04;88.21;100870.84;4781035;29;45452;-87
2022/02/04 03:26:09;;;;;;;;;10.00;8.33;;;;;10.15;88.31;100890.50;4780593;29;45442;-86
2022/02/04 03:28:37;;;;;;;;;8.00;6.67;;;;;10.24;88.08;100894.19;4769685;29;47207;-86
2022/02/04 03:31:03;;;;;;;;;7.33;7.33;;;;;10.17;88.32;100887.91;4809862;29;45411;-86
2022/02/04 03:34:24;;;;;;;;;8.00;8.00;;;;;10.19;88.55;100887.03;4856796;29;45372;-86
2022/02/04 03:36:56;;;;;;;;;13.00;9.33;;;;;10.07;88.58;100878.84;4858346;29;45384;-86
2022/02/04 03:39:21;;;;;;;;;8.33;8.33;;;;;9.98;88.81;100876.94;4842418;29;47358;-86
2022/02/04 03:41:47;;;;;;;;;9.67;8.33;;;;;9.82;89.19;100865.13;4855912;29;45578;-85
2022/02/04 03:44:12;;;;;;;;;8.67;8.67;;;;;9.88;89.31;100879.41;4839374;29;45083;-86
2022/02/04 03:46:39;;;;;;;;;8.00;8.00;;;;;9.86;89.63;100863.41;4838353;29;45758;-86
2022/02/04 03:49:04;;;;;;;;;12.67;8.33;;;;;9.84;89.46;100870.47;4854638;29;45708;-86
2022/02/04 03:51:30;;;;;;;;;10.00;8.00;;;;;9.81;89.84;100863.31;4854533;29;45438;-86
2022/02/04 03:53:55;;;;;;;;;12.33;8.00;;;;;9.87;89.72;100875.81;4854168;29;45296;-86
2022/02/04 03:56:20;;;;;;;;;13.67;12.00;;;;;9.84;89.60;100870.47;4855621;29;45356;-86
2022/02/04 03:58:46;;;;;;;;;10.67;8.33;;;;;9.89;89.62;100876.75;4838049;29;48005;-87
2022/02/04 04:01:12;;;;;;;;;14.00;12.00;;;;;9.90;89.73;100881.22;4824507;29;45749;-86
2022/02/04 04:03:38;;;;;;;;;8.00;7.00;;;;;9.89;89.83;100881.16;4840672;29;45328;-87
2022/02/04 04:06:04;;;;;;;;;7.00;7.00;;;;;9.85;90.10;100874.00;4855636;29;45639;-86
2022/02/04 04:08:29;;;;;;;;;12.33;10.67;;;;;9.85;89.87;100874.00;4840551;29;46594;-87
2022/02/04 04:10:55;;;;;;;;;13.33;9.67;;;;;9.86;89.67;100886.44;4854888;29;45785;-87
2022/02/04 04:13:20;;;;;;;;;16.33;12.33;;;;;9.84;89.89;100873.13;4838688;29;45352;-87
2022/02/04 04:15:46;;;;;;;;;13.33;11.33;;;;;9.90;90.26;100882.97;4854211;29;44845;-87
2022/02/04 04:18:15;;;;;;;;;15.00;12.67;;;;;9.88;89.62;100871.44;4855876;29;46285;-87
2022/02/04 04:20:44;;;;;;;;;8.67;7.67;;;;;9.94;90.07;100876.84;4838593;29;45364;-86
2022/02/04 04:23:10;;;;;;;;;14.33;9.67;;;;;9.84;90.06;100858.91;4839158;29;45410;-86
2022/02/04 04:25:35;;;;;;;;;12.67;11.00;;;;;9.81;90.14;100852.69;4837099;29;46073;-87
2022/02/04 04:28:01;;;;;;;;;15.33;14.00;;;;;9.86;90.05;100857.22;4837147;29;46923;-86
2022/02/04 04:30:26;;;;;;;;;19.00;16.00;;;;;9.92;90.75;100860.00;4837370;29;45914;-86
2022/02/04 04:32:54;;;;;;;;;14.00;13.67;;;;;9.92;90.52;100865.31;4854938;29;44875;-86
2022/02/04 04:35:24;;;;;;;;;13.67;13.67;;;;;9.89;90.24;100873.19;4852489;29;45239;-86
2022/02/04 04:40:42;;;;;;;;;14.67;13.67;;;;;9.84;90.81;100865.16;4855791;29;45413;-86
2022/02/04 05:29:50;;;;;;;;;26.33;21.67;;;;;9.91;90.14;100837.81;4855674;29;45351;-87
2022/02/04 05:32:16;;;;;;;;;20.67;18.00;;;;;9.87;89.95;100824.47;4855651;29;45659;-87
2022/02/04 05:34:45;;;;;;;;;18.00;14.33;;;;;9.88;89.90;100826.28;4847482;29;45551;-87
2022/02/04 05:37:14;;;;;;;;;18.00;15.67;;;;;9.90;90.06;100832.50;4853977;29;45390;-86
2022/02/04 05:40:01;;;;;;;;;17.67;17.67;;;;;9.88;90.17;100823.63;4825060;29;45507;-86
2022/02/04 05:42:31;;;;;;;;;14.00;12.33;;;;;9.88;90.30;100826.28;4837251;29;47017;-87
2022/02/04 05:45:15;;;;;;;;;21.00;19.00;;;;;9.86;90.28;100822.69;4853632;29;44819;-86
2022/02/04 05:47:40;;;;;;;;;17.67;15.00;;;;;9.89;90.11;100822.72;4852047;29;44798;-86
2022/02/04 05:50:14;;;;;;;;;21.33;20.33;;;;;9.88;90.34;100816.53;4835345;29;44860;-87
2022/02/04 05:55:55;;;;;;;;;29.00;19.33;;;;;9.86;89.73;100804.09;4853100;29;45401;-86
2022/02/04 06:03:38;;;;;;;;;23.33;21.00;;;;;9.90;90.08;100811.25;4852218;29;45907;-87
2022/02/04 06:06:26;;;;;;;;;17.33;16.33;;;;;9.89;89.98;100817.41;4836041;29;45719;-87
2022/02/04 06:14:28;;;;;;;;;16.33;15.00;;;;;9.85;90.62;100824.44;4851956;29;45757;-86
2022/02/04 06:22:26;;;;;;;;;20.67;18.67;;;;;9.84;90.08;100813.75;4854793;29;45347;-86
2022/02/04 06:24:53;;;;;;;;;19.00;17.00;;;;;9.94;90.22;100815.75;4837737;29;47517;-87
2022/02/04 06:27:21;;;;;;;;;23.67;19.67;;;;;9.98;89.68;100817.59;4836705;29;45441;-86
2022/02/04 06:29:49;;;;;;;;;23.00;20.33;;;;;9.96;90.00;100814.00;4838041;29;45393;-86
2022/02/04 06:32:16;;;;;;;;;21.00;19.33;;;;;9.88;90.12;100811.22;4853726;29;45502;-86
2022/02/04 06:34:43;;;;;;;;;15.67;14.33;;;;;9.90;90.36;100811.25;4852483;29;45614;-87
2022/02/04 06:37:09;;;;;;;;;20.33;14.33;;;;;9.89;89.75;100812.09;4852662;29;45776;-86
2022/02/04 06:39:34;;;;;;;;;19.33;16.67;;;;;9.96;89.82;100822.88;4837436;29;44987;-86
2022/02/04 06:42:00;;;;;;;;;24.00;23.00;;;;;9.92;89.69;100812.16;4853646;29;45499;-86
2022/02/04 06:44:25;;;;;;;;;22.00;19.33;;;;;9.93;90.13;100809.53;4852403;29;48360;-87
2022/02/04 06:46:50;;;;;;;;;18.33;17.67;;;;;10.00;89.53;100814.09;4853803;29;45766;-87
2022/02/04 06:49:16;;;;;;;;;21.33;20.00;;;;;10.05;89.72;100808.84;4853943;29;45245;-87
2022/02/04 06:51:42;;;;;;;;;22.33;18.67;;;;;10.06;89.45;100817.69;4853428;29;44828;-86
2022/02/04 06:54:10;;;;;;;;;21.00;16.00;;;;;9.99;89.86;100814.94;4854515;29;45545;-86
2022/02/04 06:56:36;;;;;;;;;22.00;20.33;;;;;9.96;89.94;100808.69;4853922;29;45448;-87
2022/02/04 06:59:04;;;;;;;;;19.33;19.33;;;;;10.01;89.65;100809.66;4837620;29;45372;-86
2022/02/04 07:01:32;;;;;;;;;26.33;19.67;;;;;10.00;90.10;100810.53;4858273;29;45499;-86
2022/02/04 07:03:58;;;;;;;;;19.67;17.33;;;;;9.93;89.98;100806.88;4856917;29;47088;-86
2022/02/04 07:06:23;;;;;;;;;19.00;18.33;;;;;9.95;89.62;100804.25;4839887;29;45913;-87
2022/02/04 07:14:15;;;;;;;;;19.67;13.67;;;;;10.12;89.33;100828.44;4858883;29;45513;-86
2022/02/04 07:22:05;;;;;;;;;18.00;14.33;;;;;10.18;88.94;100810.84;4858236;29;45638;-87
2022/02/04 07:25:21;;;;;;;;;18.67;15.33;;;;;10.28;88.66;100821.63;4841216;29;46758;-86
2022/02/04 07:27:46;;;;;;;;;23.00;20.33;;;;;10.19;88.93;100815.28;4856300;29;45515;-84
2022/02/04 07:30:15;;;;;;;;;17.00;16.00;;;;;10.19;88.40;100804.66;4857521;29;45864;-87
2022/02/04 07:32:50;;;;;;;;;14.33;13.00;;;;;10.20;88.36;100811.78;4855722;29;45403;-87
2022/02/04 07:35:35;;;;;;;;;14.33;14.33;;;;;10.17;88.33;100802.84;4856406;29;46133;-87
2022/02/04 07:43:22;;;;;;;;;23.67;20.33;;;;;10.25;88.30;100811.84;4859623;29;45262;-85
2022/02/04 07:45:48;;;;;;;;;23.67;16.67;;;;;10.24;88.11;100812.72;4843360;29;47231;-88
2022/02/04 07:48:14;;;;;;;;;14.67;14.33;;;;;10.21;88.13;100796.72;4841656;29;45360;-87
2022/02/04 07:50:40;;;;;;;;;20.67;16.33;;;;;10.23;87.88;100807.38;4859370;29;45388;-87
2022/02/04 07:53:05;;;;;;;;;16.67;13.00;;;;;9.99;87.80;100756.47;4859347;29;45352;-87
2022/02/04 07:55:31;;;;;;;;;15.33;15.00;;;;;10.26;88.12;100800.34;4858968;29;45735;-86
2022/02/04 07:57:56;;;;;;;;;12.67;12.33;;;;;10.24;87.95;100793.19;4858189;29;44777;-87
2022/02/04 08:00:27;;;;;;;;;13.67;13.67;;;;;10.16;88.00;100775.38;4845905;29;45202;-86
2022/02/04 08:03:03;;;;;;;;;15.33;14.00;;;;;10.31;88.08;100797.78;4843795;29;45794;-87
2022/02/04 08:05:29;;;;;;;;;16.67;14.67;;;;;10.29;87.78;100791.53;4841847;29;46865;-86
2022/02/04 08:08:15;;;;;;;;;14.67;14.67;;;;;10.28;87.84;100790.63;4840955;29;45516;-86
2022/02/04 08:10:53;;;;;;;;;18.33;16.67;;;;;10.41;87.76;100805.03;4842443;29;45368;-87
2022/02/04 08:34:05;;;;;;;;;16.00;14.33;;;;;10.74;86.08;100796.66;4863096;29;44809;-87
2022/02/04 08:52:56;;;;;;;;;16.67;13.67;;;;;10.92;85.45;100804.00;4858783;29;44942;-84
2022/02/04 08:55:49;;;;;;;;;20.67;16.00;;;;;11.01;85.21;100805.91;4844393;29;45275;-85
2022/02/04 09:01:09;;;;;;;;;17.33;16.67;;;;;10.92;85.07;100782.72;4845612;29;45292;-86
2022/02/04 09:06:14;;;;;;;;;14.33;14.00;;;;;11.02;84.90;100800.59;4846797;29;44824;-85
2022/02/04 09:08:54;;;;;;;;;15.00;15.00;;;;;11.04;84.74;100789.97;4858882;29;45785;-83
2022/02/04 09:11:41;;;;;;;;;15.00;15.00;;;;;11.09;84.36;100782.03;4842650;29;44749;-86
2022/02/04 09:19:27;;;;;;;;;12.33;11.33;;;;;11.23;83.84;100769.81;4842560;29;45402;-87
2022/02/04 09:24:22;;;;;;;;;16.00;14.00;;;;;11.27;83.41;100749.44;4858170;29;45584;-87
2022/02/04 09:26:52;;;;;;;;;11.33;8.67;;;;;11.36;83.10;100769.06;4842340;29;45450;-86
2022/02/04 09:29:17;;;;;;;;;8.33;8.33;;;;;11.26;83.20;100759.19;4858002;29;46855;-87
2022/02/04 09:31:43;;;;;;;;;11.00;11.00;;;;;11.19;83.50;100754.69;4841486;29;45832;-86
2022/02/04 09:34:10;;;;;;;;;10.67;9.33;;;;;11.19;83.54;100754.69;4843816;29;45193;-85
2022/02/04 09:36:37;;;;;;;;;15.33;14.00;;;;;11.10;84.10;100752.78;4825866;29;44843;-85
2022/02/04 09:39:15;;;;;;;;;33.67;29.67;;;;;11.28;84.14;100776.06;4836898;29;45412;-87
2022/02/04 09:41:44;;;;;;;;;22.33;17.67;;;;;11.21;84.66;100779.56;4842385;29;45402;-88
2022/02/04 09:44:10;;;;;;;;;12.33;12.33;;;;;11.13;84.85;100775.88;4849492;29;45347;-88
2022/02/04 09:46:36;;;;;;;;;12.00;9.33;;;;;11.08;85.51;100788.25;4812512;29;45489;-85
2022/02/04 10:15:41;;;;;;;;;11.33;9.67;;;;;11.44;85.58;100737.19;4792589;29;45345;-86
2022/02/04 10:18:26;;;;;;;;;47.67;39.00;;;;;11.65;84.80;100736.50;4767195;29;45361;-86
2022/02/04 10:20:52;;;;;;;;;17.00;14.33;;;;;11.70;84.50;100723.25;4786282;29;44891;-87
2022/02/04 10:23:18;;;;;;;;;28.67;25.67;;;;;11.94;83.86;100730.59;4767646;29;47141;-85
2022/02/04 10:25:45;;;;;;;;;33.67;33.33;;;;;12.00;83.19;100712.88;4768077;29;45220;-85
2022/02/04 10:31:35;;;;;;;;;28.33;27.67;;;;;12.31;82.57;100733.53;4786516;29;44909;-85
2022/02/04 10:34:13;;;;;;;;;17.33;17.33;;;;;12.39;82.13;100730.03;4780571;29;46642;-86
2022/02/04 10:42:38;;;;;;;;;16.00;16.00;;;;;12.52;81.80;100724.78;4809694;29;45554;-85
2022/02/04 10:54:11;;;;;;;;;11.00;10.00;;;;;12.80;80.06;100707.13;4857190;29;45230;-88
2022/02/04 11:03:12;;;;;;;;;15.00;11.00;;;;;13.00;80.65;100724.13;4842755;29;45607;-86
2022/02/04 11:06:05;;;;;;;;;11.33;9.67;;;;;13.06;80.39;100717.03;4822761;29;44900;-88
2022/02/04 11:08:57;;;;;;;;;15.00;14.00;;;;;13.13;79.84;100726.84;4807261;29;46973;-86
2022/02/04 11:31:28;;;;;;;;;11.67;9.00;;;;;13.42;78.83;100699.34;4823881;29;45018;-87
2022/02/04 11:34:12;;;;;;;;;6.00;6.00;;;;;13.40;77.54;100686.88;4851388;29;44771;-87
2022/02/04 11:37:07;;;;;;;;;10.67;10.67;;;;;13.37;78.32;100673.53;4859094;29;45407;-87
2022/02/04 11:51:33;;;;;;;;;5.00;5.00;;;;;13.59;75.20;100634.38;4859075;29;44989;-85
2022/02/04 11:54:33;;;;;;;;;4.00;4.00;;;;;13.59;75.90;100630.78;4841211;29;47780;-85
2022/02/04 11:57:01;;;;;;;;;3.67;3.67;;;;;13.61;74.95;100629.00;4816381;29;45555;-85
2022/02/04 11:59:42;;;;;;;;;2.33;2.33;;;;;13.63;74.15;100627.22;4826381;29;45413;-87
2022/02/04 12:02:30;;;;;;;;;3.00;3.00;;;;;13.73;76.10;100618.28;4849804;29;45447;-86
2022/02/04 12:08:20;;;;;;;;;5.00;4.67;;;;;13.97;74.35;100595.09;4860772;29;44851;-86
2022/02/04 12:11:11;;;;;;;;;4.00;3.00;;;;;14.07;72.00;100604.88;4847467;29;44795;-86
2022/02/04 12:14:07;;;;;;;;;2.00;2.00;;;;;14.17;71.93;100597.72;4862697;29;44945;-86
2022/02/04 12:16:32;;;;;;;;;1.33;1.33;;;;;14.19;71.40;100587.91;4858180;29;45385;-87
2022/02/04 12:19:06;;;;;;;;;3.00;3.00;;;;;14.34;69.64;100582.53;4840539;29;44891;-86
2022/02/04 12:21:42;;;;;;;;;3.33;3.00;;;;;14.20;69.43;100571.00;4862342;29;44994;-87
2022/02/04 12:24:32;;;;;;;;;6.33;5.00;;;;;14.28;69.14;100578.94;4843018;29;45419;-87
2022/02/04 12:27:39;;;;;;;;;3.00;3.00;;;;;14.32;69.53;100565.59;4842689;29;47290;-86
2022/02/04 12:30:33;;;;;;;;;3.00;3.00;;;;;14.31;68.70;100554.88;4843095;29;45480;-86
2022/02/04 12:33:03;;;;;;;;;1.00;1.00;;;;;14.31;68.67;100541.50;4858851;29;44808;-84
2022/02/04 12:35:29;;;;;;;;;2.00;2.00;;;;;14.41;67.19;100545.91;4828148;29;45324;-85
2022/02/04 12:38:08;;;;;;;;;0.67;0.67;;;;;14.27;66.07;100526.38;4856801;29;47568;-85
2022/02/04 12:40:41;;;;;;;;;2.00;2.00;;;;;14.08;66.80;100505.06;4837915;29;44773;-85
2022/02/04 12:43:10;;;;;;;;;3.00;2.00;;;;;14.07;66.14;100489.00;4825202;29;44815;-85
2022/02/04 12:46:18;;;;;;;;;3.00;2.00;;;;;14.45;65.83;100526.28;4836611;29;45520;-85
2022/02/04 12:49:26;;;;;;;;;;;;;;;;;;;;;
2022/02/04 12:52:00;;;;;;;;;0.00;0.00;;;;;14.49;65.82;100540.53;4842111;29;72048;-86
2022/02/04 13:00:32;;;;;;;;;0.33;0.33;;;;;14.42;63.42;100526.28;4859730;29;45243;-87
2022/02/04 13:08:35;;;;;;;;;0.00;0.00;;;;;14.60;63.73;100511.94;4853811;29;44947;-86
2022/02/04 13:11:02;;;;;;;;;2.00;2.00;;;;;14.55;63.96;100525.31;4846145;29;47579;-86
2022/02/04 13:13:57;;;;;;;;;1.00;1.00;;;;;14.53;63.75;100510.19;4849828;29;44924;-86
2022/02/04 13:16:23;;;;;;;;;1.00;1.00;;;;;14.54;63.51;100519.97;4839147;29;44906;-85
2022/02/04 13:18:50;;;;;;;;;2.33;1.00;;;;;14.43;63.72;100516.47;4847650;29;45562;-85
2022/02/04 13:21:15;;;;;;;;;1.00;1.00;;;;;14.41;63.50;100521.84;4839901;29;46640;-85
2022/02/04 13:23:52;;;;;;;;;0.33;0.33;;;;;14.39;63.98;100524.50;4841852;29;44759;-86
2022/02/04 13:26:24;;;;;;;;;1.33;1.33;;;;;14.14;64.27;100505.03;4840841;29;45349;-88
2022/02/04 13:28:56;;;;;;;;;1.00;1.00;;;;;14.20;64.41;100533.53;4846515;29;45012;-86
2022/02/04 13:31:27;;;;;;;;;0.00;0.00;;;;;13.98;64.28;100522.03;4860317;29;45345;-87
2022/02/04 13:33:57;;;;;;;;;0.00;0.00;;;;;14.06;64.53;100546.03;4826039;29;45301;-86
2022/02/04 13:39:49;;;;;;;;;1.00;1.00;;;;;14.13;63.62;100551.38;4875669;29;45596;-86
2022/02/04 13:42:35;;;;;;;;;3.67;1.00;;;;;14.03;65.33;100535.38;4858507;29;45443;-86
2022/02/04 13:48:41;;;;;;;;;1.00;1.00;;;;;14.06;64.95;100530.91;4842168;29;46212;-86
2022/02/04 13:51:26;;;;;;;;;3.00;2.00;;;;;14.01;64.91;100527.34;4855994;29;45440;-86
2022/02/04 13:57:07;;;;;;;;;0.00;0.00;;;;;13.92;65.29;100551.47;4846233;29;44863;-86
2022/02/04 13:59:43;;;;;;;;;1.33;1.33;;;;;13.78;65.79;100541.69;4875101;29;44889;-85
2022/02/04 14:02:16;;;;;;;;;1.00;1.00;;;;;13.79;66.10;100542.56;4859791;29;45441;-85
2022/02/04 14:04:58;;;;;;;;;1.00;1.00;;;;;13.70;65.69;100508.75;4857553;29;46097;-86
2022/02/04 14:07:51;;;;;;;;;2.67;2.67;;;;;13.86;66.80;100548.81;4838786;29;45859;-86
2022/02/04 14:10:53;;;;;;;;;1.33;1.33;;;;;13.89;66.60;100544.31;4827121;29;45434;-87
2022/02/04 14:13:46;;;;;;;;;1.00;1.00;;;;;13.70;66.75;100508.75;4825455;29;44993;-87
2022/02/04 14:16:28;;;;;;;;;0.00;0.00;;;;;13.76;66.38;100508.72;4820458;29;46850;-86
2022/02/04 14:18:54;;;;;;;;;1.25;1.25;;;;;13.90;66.81;100540.75;4852127;29;45425;-86
2022/02/04 14:21:28;;;;;;;;;2.00;1.50;;;;;13.95;66.93;100548.75;4863035;29;44807;-88
2022/02/04 14:24:00;;;;;;;;;3.00;2.00;;;;;13.75;67.96;100540.78;4844795;29;44870;-86
2022/02/04 14:26:31;;;;;;;;;1.00;1.00;;;;;13.56;68.09;100532.81;4861185;29;45950;-86
2022/02/04 14:34:59;;;;;;;;;1.33;1.33;;;;;13.44;70.15;100577.38;4883111;29;44779;-86
2022/02/04 14:49:18;;;;;;;;;0.50;0.00;;;;;13.10;71.05;100547.94;4850873;29;45465;-86
2022/02/04 15:00:10;;;;;;;;;1.00;0.00;;;;;11.36;88.29;100685.63;4826425;29;45363;-85
2022/02/04 15:02:42;;;;;;;;;1.33;1.33;;;;;10.85;87.70;100697.50;4826196;29;45634;-87
2022/02/04 15:05:16;;;;;;;;;1.00;1.00;;;;;10.65;87.65;100705.22;4810954;29;44847;-87
2022/02/04 15:08:31;;;;;;;;;1.00;1.00;;;;;10.56;88.79;100728.16;4826946;29;44967;-87
2022/02/04 15:11:01;;;;;;;;;0.00;0.00;;;;;10.49;89.29;100736.91;4771139;29;45760;-85
2022/02/04 15:13:32;;;;;;;;;0.00;0.00;;;;;10.37;90.00;100720.78;4788886;29;45908;-86
2022/02/04 15:22:44;;;;;;;;;1.00;1.00;;;;;10.18;88.04;100728.47;4783455;29;45035;-86
2022/02/04 15:25:19;;;;;;;;;1.00;1.00;;;;;10.13;88.80;100732.81;4788866;29;45301;-87
2022/02/04 15:28:38;;;;;;;;;;;;;;;;;;;;;
2022/02/04 15:34:43;;;;;;;;;0.00;0.00;;;;;9.57;99.13;100788.50;4804329;29;46653;-88
2022/02/04 15:37:17;;;;;;;;;0.00;0.00;;;;;9.18;98.73;100768.28;4788715;29;44924;-87
2022/02/04 15:44:34;;;;;;;;;0.00;0.00;;;;;9.15;96.88;100802.69;4809825;29;45556;-89
2022/02/04 15:53:16;;;;;;;;;0.00;0.00;;;;;9.16;93.75;100820.44;4856853;29;44890;-88
2022/02/04 15:59:39;;;;;;;;;;;;;;;;;;;;;
2022/02/04 16:08:27;;;;;;;;;3.67;2.33;;;;;9.32;86.74;100859.69;4865597;29;45892;-88
2022/02/04 16:11:29;;;;;;;;;;;;;;;;;;;;;
2022/02/04 16:14:36;;;;;;;;;1.67;1.67;;;;;9.49;85.42;100867.09;4865506;29;71336;-88
2022/02/04 16:22:58;;;;;;;;;1.67;1.67;;;;;9.74;84.27;100892.41;4874900;29;45431;-88
2022/02/04 16:25:41;;;;;;;;;1.00;1.00;;;;;9.61;83.77;100856.72;4858995;29;45391;-88
2022/02/04 16:30:52;;;;;;;;;2.33;2.00;;;;;9.68;83.95;100877.25;4847080;29;45391;-88
2022/02/04 16:33:17;;;;;;;;;1.67;0.67;;;;;9.80;84.08;100908.47;4839277;29;45414;-87
2022/02/04 16:35:46;;;;;;;;;2.00;2.00;;;;;9.73;83.05;100899.44;4856598;29;45620;-86
2022/02/04 16:38:17;;;;;;;;;2.00;2.00;;;;;9.79;82.87;100912.84;4824661;29;45571;-88
2022/02/04 16:40:45;;;;;;;;;3.00;3.00;;;;;9.63;83.46;100884.19;4841099;29;45446;-87
2022/02/04 16:43:26;;;;;;;;;2.00;2.00;;;;;9.84;83.54;100917.34;4856771;29;46265;-86
2022/02/04 16:45:53;;;;;;;;;3.00;1.00;;;;;9.75;82.38;100920.75;4857393;29;45430;-87
2022/02/04 16:48:22;;;;;;;;;2.67;2.67;;;;;9.68;81.68;100918.84;4858148;29;44993;-87
2022/02/04 16:50:50;;;;;;;;;3.00;3.00;;;;;9.63;81.18;100939.97;4840333;29;45440;-88
2022/02/04 16:53:30;;;;;;;;;1.00;1.00;;;;;9.34;80.91;100908.38;4840115;29;45375;-88
2022/02/04 16:55:55;;;;;;;;;1.00;1.00;;;;;9.30;81.01;100925.09;4840991;29;45312;-88
2022/02/04 16:58:24;;;;;;;;;3.00;2.00;;;;;9.11;81.28;100897.28;4841963;29;44853;-87
2022/02/04 17:01:02;;;;;;;;;1.33;1.33;;;;;9.25;80.39;100944.44;4843943;29;45457;-88
2022/02/04 17:03:28;;;;;;;;;2.67;2.67;;;;;9.18;80.65;100959.34;4824395;29;46901;-87
2022/02/04 17:05:56;;;;;;;;;3.33;3.00;;;;;8.99;79.47;100943.00;4816695;29;45347;-83
2022/02/04 17:08:34;;;;;;;;;3.00;1.00;;;;;9.06;78.88;100975.84;4852851;29;45634;-85
2022/02/04 17:11:08;;;;;;;;;3.00;2.00;;;;;9.07;79.29;100982.06;4854655;29;45400;-85
2022/02/04 17:13:35;;;;;;;;;2.00;2.00;;;;;8.96;79.53;100980.03;4869777;29;45545;-85
2022/02/04 17:16:01;;;;;;;;;6.00;2.67;;;;;8.98;79.33;101012.81;4857848;29;44836;-85
2022/02/04 17:18:36;;;;;;;;;;;;;;;;;;;;;
2022/02/04 17:21:06;;;;;;;;;2.00;2.00;;;;;8.82;79.60;101002.66;4873058;29;64830;-85
2022/02/04 17:23:43;;;;;;;;;2.00;2.00;;;;;8.53;78.80;100971.00;4857574;29;47108;-87
2022/02/04 17:26:11;;;;;;;;;1.33;1.33;;;;;8.83;78.36;101033.66;4825134;29;45347;-84
2022/02/04 17:28:37;;;;;;;;;2.00;1.00;;;;;8.59;77.90;101007.41;4822650;29;44813;-86
2022/02/04 17:31:04;;;;;;;;;2.00;1.67;;;;;8.70;78.16;101060.69;4822664;29;45584;-86
2022/02/04 17:33:40;;;;;;;;;;;;;;;;;;;;;
2022/02/04 17:36:06;;;;;;;;;2.00;2.00;;;;;8.37;78.02;101016.50;4844086;29;73221;-85
2022/02/04 17:38:32;;;;;;;;;2.00;2.00;;;;;8.53;79.04;101052.31;4841750;29;44788;-85
2022/02/04 17:41:16;;;;;;;;;4.00;2.33;;;;;8.59;78.26;101073.69;4828205;29;45387;-85
2022/02/04 17:43:49;;;;;;;;;2.00;2.00;;;;;8.45;78.27;101064.44;4837757;29;47145;-87
2022/02/04 17:46:15;;;;;;;;;4.00;4.00;;;;;8.46;77.82;101085.66;4839702;29;45136;-88
2022/02/04 17:48:53;;;;;;;;;4.00;2.33;;;;;8.43;78.09;101093.56;4855289;29;45499;-86
2022/02/04 17:51:34;;;;;;;;;2.00;2.00;;;;;8.34;77.47;101093.25;4837853;29;45491;-86
2022/02/04 17:54:04;;;;;;;;;1.33;1.33;;;;;8.33;77.97;101099.41;4854670;29;48314;-84
2022/02/04 17:56:35;;;;;;;;;6.00;3.00;;;;;8.31;77.54;101111.72;4857244;29;45400;-87
2022/02/04 17:59:32;;;;;;;;;2.00;2.00;;;;;8.04;78.29;101056.16;4842057;29;44860;-87
2022/02/04 18:07:21;;;;;;;;;2.00;2.00;;;;;8.11;78.79;101112.00;4856577;29;45342;-87
2022/02/04 18:09:47;;;;;;;;;4.33;3.00;;;;;8.16;78.65;101121.00;4837688;29;45233;-86
2022/02/04 18:12:28;;;;;;;;;2.33;1.00;;;;;8.26;79.00;101142.47;4837650;29;45618;-87
2022/02/04 18:14:54;;;;;;;;;4.00;3.67;;;;;8.05;78.92;101116.25;4835736;29;46200;-87
2022/02/04 18:17:20;;;;;;;;;8.33;7.67;;;;;8.07;79.11;101126.03;4836512;29;45542;-87
2022/02/04 18:20:03;;;;;;;;;5.33;5.33;;;;;8.03;79.00;101110.88;4851021;29;44914;-87
2022/02/04 18:22:30;;;;;;;;;6.00;6.00;;;;;8.20;79.49;101149.41;4849096;29;45334;-83
2022/02/04 18:24:56;;;;;;;;;4.00;4.00;;;;;8.07;79.23;101131.31;4848442;29;45425;-87
2022/02/04 18:27:22;;;;;;;;;4.33;2.00;;;;;8.05;79.85;101135.66;4834025;29;45744;-87
2022/02/04 18:29:53;;;;;;;;;6.00;4.00;;;;;7.98;79.50;101129.28;4850227;29;44911;-86
2022/02/04 18:32:22;;;;;;;;;4.67;4.67;;;;;8.13;80.46;101159.75;4835013;29;45371;-87
2022/02/04 18:34:50;;;;;;;;;6.00;6.00;;;;;8.13;80.16;101163.28;4832974;29;48225;-86
2022/02/04 18:37:18;;;;;;;;;5.33;5.33;;;;;7.84;80.38;101124.41;4832689;29;45483;-86
2022/02/04 18:44:59;;;;;;;;;4.00;4.00;;;;;7.90;80.13;101143.16;4847984;29;45433;-86
2022/02/04 18:51:15;;;;;;;;;6.67;6.67;;;;;7.97;80.40;101171.63;4849108;29;45448;-86